sensor_id;sensor_type;location;lat;lon;timestamp;P1;durP1;ratioP1;P2;durP2;ratioP2
31087;SDS011;17745;55.914;37.554;2023-06-22T00:33:29;29.20;;;8.88;;
31087;SDS011;17745;55.914;37.554;2023-06-22T00:36:40;18.87;;;8.20;;
31087;SDS011;17745;55.914;37.554;2023-06-22T00:39:51;15.52;;;8.23;;
31087;SDS011;17745;55.914;37.554;2023-06-22T00:42:53;25.52;;;8.95;;
31087;SDS011;17745;55.914;37.554;2023-06-22T00:45:56;17.80;;;8.07;;
31087;SDS011;17745;55.914;37.554;2023-06-22T00:52:13;17.80;;;9.20;;
31087;SDS011;17745;55.914;37.554;2023-06-22T00:55:06;26.40;;;8.70;;
31087;SDS011;17745;55.914;37.554;2023-06-22T00:58:35;18.83;;;8.07;;
31087;SDS011;17745;55.914;37.554;2023-06-22T01:01:11;28.73;;;9.95;;
31087;SDS011;17745;55.914;37.554;2023-06-22T01:03:58;17.80;;;8.15;;
31087;SDS011;17745;55.914;37.554;2023-06-22T01:06:42;17.52;;;8.65;;
31087;SDS011;17745;55.914;37.554;2023-06-22T01:09:46;20.27;;;7.95;;
31087;SDS011;17745;55.914;37.554;2023-06-22T01:12:48;22.95;;;8.32;;
31087;SDS011;17745;55.914;37.554;2023-06-22T01:15:36;17.05;;;7.18;;
31087;SDS011;17745;55.914;37.554;2023-06-22T01:18:42;14.07;;;6.87;;
31087;SDS011;17745;55.914;37.554;2023-06-22T01:21:29;21.77;;;8.48;;
31087;SDS011;17745;55.914;37.554;2023-06-22T01:24:22;16.80;;;8.05;;
31087;SDS011;17745;55.914;37.554;2023-06-22T01:27:17;20.02;;;8.98;;
31087;SDS011;17745;55.914;37.554;2023-06-22T01:30:15;17.58;;;9.88;;
31087;SDS011;17745;55.914;37.554;2023-06-22T01:33:07;24.35;;;9.35;;
31087;SDS011;17745;55.914;37.554;2023-06-22T01:36:16;18.17;;;7.65;;
31087;SDS011;17745;55.914;37.554;2023-06-22T01:39:26;20.58;;;9.25;;
31087;SDS011;17745;55.914;37.554;2023-06-22T01:50:21;17.77;;;7.87;;
31087;SDS011;17745;55.914;37.554;2023-06-22T01:52:58;21.70;;;7.65;;
31087;SDS011;17745;55.914;37.554;2023-06-22T01:55:32;22.65;;;8.10;;
31087;SDS011;17745;55.914;37.554;2023-06-22T01:58:25;21.20;;;8.25;;
31087;SDS011;17745;55.914;37.554;2023-06-22T02:01:14;18.20;;;8.07;;
31087;SDS011;17745;55.914;37.554;2023-06-22T02:04:27;19.58;;;9.70;;
31087;SDS011;17745;55.914;37.554;2023-06-22T02:07:44;17.10;;;8.32;;
31087;SDS011;17745;55.914;37.554;2023-06-22T02:10:51;18.58;;;8.18;;
31087;SDS011;17745;55.914;37.554;2023-06-22T02:13:46;19.87;;;9.07;;
31087;SDS011;17745;55.914;37.554;2023-06-22T02:16:37;19.00;;;8.23;;
31087;SDS011;17745;55.914;37.554;2023-06-22T02:19:46;23.55;;;8.10;;
31087;SDS011;17745;55.914;37.554;2023-06-22T02:34:38;15.70;;;9.20;;
31087;SDS011;17745;55.914;37.554;2023-06-22T02:38:30;19.40;;;9.20;;
31087;SDS011;17745;55.914;37.554;2023-06-22T02:41:46;22.33;;;8.68;;
31087;SDS011;17745;55.914;37.554;2023-06-22T02:45:12;24.92;;;8.93;;
31087;SDS011;17745;55.914;37.554;2023-06-22T02:48:40;26.33;;;9.77;;
31087;SDS011;17745;55.914;37.554;2023-06-22T02:52:12;32.00;;;10.27;;
31087;SDS011;17745;55.914;37.554;2023-06-22T02:55:09;24.48;;;9.77;;
31087;SDS011;17745;55.914;37.554;2023-06-22T03:13:22;27.27;;;9.00;;
31087;SDS011;17745;55.914;37.554;2023-06-22T03:16:31;18.90;;;8.82;;
31087;SDS011;17745;55.914;37.554;2023-06-22T03:20:00;32.25;;;9.90;;
31087;SDS011;17745;55.914;37.554;2023-06-22T03:23:39;26.65;;;9.20;;
31087;SDS011;17745;55.914;37.554;2023-06-22T03:26:51;16.02;;;7.80;;
31087;SDS011;17745;55.914;37.554;2023-06-22T03:30:00;23.67;;;9.45;;
31087;SDS011;17745;55.914;37.554;2023-06-22T03:33:02;17.62;;;7.97;;
31087;SDS011;17745;55.914;37.554;2023-06-22T03:35:54;21.87;;;7.15;;
31087;SDS011;17745;55.914;37.554;2023-06-22T03:38:45;14.60;;;7.15;;
31087;SDS011;17745;55.914;37.554;2023-06-22T03:41:17;14.95;;;6.43;;
31087;SDS011;17745;55.914;37.554;2023-06-22T03:43:49;19.02;;;7.03;;
31087;SDS011;17745;55.914;37.554;2023-06-22T03:46:32;21.55;;;6.95;;
31087;SDS011;17745;55.914;37.554;2023-06-22T03:49:03;19.08;;;7.00;;
31087;SDS011;17745;55.914;37.554;2023-06-22T03:55:17;12.23;;;6.95;;
31087;SDS011;17745;55.914;37.554;2023-06-22T05:29:43;13.52;;;4.50;;
31087;SDS011;17745;55.914;37.554;2023-06-22T05:32:15;11.48;;;4.62;;
31087;SDS011;17745;55.914;37.554;2023-06-22T05:34:58;11.20;;;5.20;;
31087;SDS011;17745;55.914;37.554;2023-06-22T05:37:57;13.52;;;6.50;;
31087;SDS011;17745;55.914;37.554;2023-06-22T05:40:58;11.95;;;5.10;;
31087;SDS011;17745;55.914;37.554;2023-06-22T05:43:57;10.48;;;4.68;;
31087;SDS011;17745;55.914;37.554;2023-06-22T05:46:55;8.63;;;4.32;;
31087;SDS011;17745;55.914;37.554;2023-06-22T05:50:06;11.23;;;4.85;;
31087;SDS011;17745;55.914;37.554;2023-06-22T05:52:59;12.45;;;5.07;;
31087;SDS011;17745;55.914;37.554;2023-06-22T05:55:39;7.90;;;4.43;;
31087;SDS011;17745;55.914;37.554;2023-06-22T05:58:25;11.50;;;5.00;;
31087;SDS011;17745;55.914;37.554;2023-06-22T06:01:11;15.50;;;6.25;;
31087;SDS011;17745;55.914;37.554;2023-06-22T06:04:03;10.18;;;5.00;;
31087;SDS011;17745;55.914;37.554;2023-06-22T06:06:50;13.15;;;4.87;;
31087;SDS011;17745;55.914;37.554;2023-06-22T06:09:56;12.88;;;4.60;;
31087;SDS011;17745;55.914;37.554;2023-06-22T06:12:54;11.80;;;4.72;;
31087;SDS011;17745;55.914;37.554;2023-06-22T06:15:57;8.50;;;5.00;;
31087;SDS011;17745;55.914;37.554;2023-06-22T06:21:47;10.57;;;5.22;;
31087;SDS011;17745;55.914;37.554;2023-06-22T06:24:21;10.85;;;4.93;;
31087;SDS011;17745;55.914;37.554;2023-06-22T06:27:15;14.55;;;4.97;;
31087;SDS011;17745;55.914;37.554;2023-06-22T06:30:15;10.80;;;4.45;;
31087;SDS011;17745;55.914;37.554;2023-06-22T06:32:52;14.32;;;4.65;;
31087;SDS011;17745;55.914;37.554;2023-06-22T06:39:34;9.10;;;4.28;;
31087;SDS011;17745;55.914;37.554;2023-06-22T06:47:19;7.75;;;3.95;;
31087;SDS011;17745;55.914;37.554;2023-06-22T06:51:05;10.68;;;4.62;;
31087;SDS011;17745;55.914;37.554;2023-06-22T06:54:03;11.10;;;4.57;;
31087;SDS011;17745;55.914;37.554;2023-06-22T06:59:50;9.27;;;4.15;;
31087;SDS011;17745;55.914;37.554;2023-06-22T07:03:01;7.93;;;3.67;;
31087;SDS011;17745;55.914;37.554;2023-06-22T07:06:16;8.27;;;4.32;;
31087;SDS011;17745;55.914;37.554;2023-06-22T07:09:11;9.73;;;4.35;;
31087;SDS011;17745;55.914;37.554;2023-06-22T07:12:03;9.85;;;3.50;;
31087;SDS011;17745;55.914;37.554;2023-06-22T07:15:13;11.55;;;4.15;;
31087;SDS011;17745;55.914;37.554;2023-06-22T07:17:51;6.35;;;3.42;;
31087;SDS011;17745;55.914;37.554;2023-06-22T07:20:33;8.15;;;3.78;;
31087;SDS011;17745;55.914;37.554;2023-06-22T07:26:49;13.95;;;4.15;;
31087;SDS011;17745;55.914;37.554;2023-06-22T07:29:43;10.50;;;4.15;;
31087;SDS011;17745;55.914;37.554;2023-06-22T07:47:13;7.65;;;3.92;;
31087;SDS011;17745;55.914;37.554;2023-06-22T07:50:06;8.85;;;3.53;;
31087;SDS011;17745;55.914;37.554;2023-06-22T07:52:48;7.05;;;3.28;;
31087;SDS011;17745;55.914;37.554;2023-06-22T07:55:45;6.70;;;3.78;;
31087;SDS011;17745;55.914;37.554;2023-06-22T07:58:29;9.30;;;3.67;;
31087;SDS011;17745;55.914;37.554;2023-06-22T08:04:28;9.25;;;4.07;;
31087;SDS011;17745;55.914;37.554;2023-06-22T08:07:08;9.23;;;3.87;;
31087;SDS011;17745;55.914;37.554;2023-06-22T08:10:06;11.45;;;4.18;;
31087;SDS011;17745;55.914;37.554;2023-06-22T08:13:04;7.70;;;3.60;;
31087;SDS011;17745;55.914;37.554;2023-06-22T08:18:35;5.10;;;2.95;;
31087;SDS011;17745;55.914;37.554;2023-06-22T08:21:19;10.10;;;3.80;;
31087;SDS011;17745;55.914;37.554;2023-06-22T08:24:11;10.15;;;3.58;;
31087;SDS011;17745;55.914;37.554;2023-06-22T08:27:15;8.65;;;4.30;;
31087;SDS011;17745;55.914;37.554;2023-06-22T08:29:58;10.70;;;4.18;;
31087;SDS011;17745;55.914;37.554;2023-06-22T09:07:57;8.07;;;3.90;;
31087;SDS011;17745;55.914;37.554;2023-06-22T09:10:32;9.27;;;3.70;;
31087;SDS011;17745;55.914;37.554;2023-06-22T09:13:07;10.77;;;3.90;;
31087;SDS011;17745;55.914;37.554;2023-06-22T09:18:50;11.12;;;4.57;;
31087;SDS011;17745;55.914;37.554;2023-06-22T09:21:45;7.70;;;4.35;;
31087;SDS011;17745;55.914;37.554;2023-06-22T09:25:02;7.75;;;4.43;;
31087;SDS011;17745;55.914;37.554;2023-06-22T09:28:48;9.38;;;4.72;;
31087;SDS011;17745;55.914;37.554;2023-06-22T09:32:06;8.52;;;4.30;;
31087;SDS011;17745;55.914;37.554;2023-06-22T09:34:38;9.40;;;4.32;;
31087;SDS011;17745;55.914;37.554;2023-06-22T09:37:10;11.05;;;4.43;;
31087;SDS011;17745;55.914;37.554;2023-06-22T09:39:41;10.70;;;4.75;;
31087;SDS011;17745;55.914;37.554;2023-06-22T09:42:12;9.10;;;4.75;;
31087;SDS011;17745;55.914;37.554;2023-06-22T09:44:41;10.93;;;4.65;;
31087;SDS011;17745;55.914;37.554;2023-06-22T09:47:14;12.48;;;4.37;;
31087;SDS011;17745;55.914;37.554;2023-06-22T09:49:43;11.32;;;4.85;;
31087;SDS011;17745;55.914;37.554;2023-06-22T09:52:12;15.32;;;5.18;;
31087;SDS011;17745;55.914;37.554;2023-06-22T09:54:43;14.20;;;5.47;;
31087;SDS011;17745;55.914;37.554;2023-06-22T10:00:05;10.10;;;4.50;;
31087;SDS011;17745;55.914;37.554;2023-06-22T10:02:46;7.93;;;4.40;;
31087;SDS011;17745;55.914;37.554;2023-06-22T10:05:16;8.20;;;4.32;;
31087;SDS011;17745;55.914;37.554;2023-06-22T10:07:46;15.85;;;4.95;;
31087;SDS011;17745;55.914;37.554;2023-06-22T10:10:19;10.55;;;4.35;;
31087;SDS011;17745;55.914;37.554;2023-06-22T10:13:07;9.07;;;4.40;;
31087;SDS011;17745;55.914;37.554;2023-06-22T10:15:38;8.02;;;4.37;;
31087;SDS011;17745;55.914;37.554;2023-06-22T10:18:21;8.55;;;4.55;;
31087;SDS011;17745;55.914;37.554;2023-06-22T10:21:09;10.30;;;5.50;;
31087;SDS011;17745;55.914;37.554;2023-06-22T10:23:43;6.87;;;4.40;;
31087;SDS011;17745;55.914;37.554;2023-06-22T10:26:12;8.90;;;4.70;;
31087;SDS011;17745;55.914;37.554;2023-06-22T10:28:47;9.02;;;5.30;;
31087;SDS011;17745;55.914;37.554;2023-06-22T10:31:17;12.60;;;5.62;;
31087;SDS011;17745;55.914;37.554;2023-06-22T10:36:22;7.25;;;4.50;;
31087;SDS011;17745;55.914;37.554;2023-06-22T10:41:40;11.25;;;4.70;;
31087;SDS011;17745;55.914;37.554;2023-06-22T10:44:13;7.80;;;4.62;;
31087;SDS011;17745;55.914;37.554;2023-06-22T10:46:43;10.45;;;4.75;;
31087;SDS011;17745;55.914;37.554;2023-06-22T11:10:48;8.88;;;4.37;;
31087;SDS011;17745;55.914;37.554;2023-06-22T11:13:52;9.55;;;4.07;;
31087;SDS011;17745;55.914;37.554;2023-06-22T11:17:23;9.80;;;4.60;;
31087;SDS011;17745;55.914;37.554;2023-06-22T11:20:01;11.12;;;4.75;;
31087;SDS011;17745;55.914;37.554;2023-06-22T11:22:38;9.68;;;4.57;;
31087;SDS011;17745;55.914;37.554;2023-06-22T11:25:43;7.20;;;4.10;;
31087;SDS011;17745;55.914;37.554;2023-06-22T11:29:15;8.77;;;5.18;;
31087;SDS011;17745;55.914;37.554;2023-06-22T11:32:11;6.53;;;4.07;;
31087;SDS011;17745;55.914;37.554;2023-06-22T11:35:11;9.55;;;4.60;;
31087;SDS011;17745;55.914;37.554;2023-06-22T11:37:42;13.35;;;5.12;;
31087;SDS011;17745;55.914;37.554;2023-06-22T11:40:16;7.05;;;4.55;;
31087;SDS011;17745;55.914;37.554;2023-06-22T11:43:16;15.57;;;5.22;;
31087;SDS011;17745;55.914;37.554;2023-06-22T11:46:14;15.35;;;4.32;;
31087;SDS011;17745;55.914;37.554;2023-06-22T11:49:02;14.23;;;5.05;;
31087;SDS011;17745;55.914;37.554;2023-06-22T11:55:00;9.98;;;4.30;;
31087;SDS011;17745;55.914;37.554;2023-06-22T11:58:04;10.15;;;5.03;;
31087;SDS011;17745;55.914;37.554;2023-06-22T12:01:32;10.50;;;4.68;;
31087;SDS011;17745;55.914;37.554;2023-06-22T12:04:16;10.98;;;4.75;;
31087;SDS011;17745;55.914;37.554;2023-06-22T12:10:04;8.95;;;4.68;;
31087;SDS011;17745;55.914;37.554;2023-06-22T13:14:20;11.52;;;4.93;;
31087;SDS011;17745;55.914;37.554;2023-06-22T13:17:10;9.95;;;5.28;;
31087;SDS011;17745;55.914;37.554;2023-06-22T13:20:40;9.75;;;4.75;;
31087;SDS011;17745;55.914;37.554;2023-06-22T13:27:07;7.65;;;4.68;;
31087;SDS011;17745;55.914;37.554;2023-06-22T13:30:20;8.38;;;5.32;;
31087;SDS011;17745;55.914;37.554;2023-06-22T13:33:59;8.45;;;4.37;;
31087;SDS011;17745;55.914;37.554;2023-06-22T13:41:27;8.55;;;4.10;;
31087;SDS011;17745;55.914;37.554;2023-06-22T15:30:15;6.80;;;4.80;;
31087;SDS011;17745;55.914;37.554;2023-06-22T15:48:01;14.25;;;4.45;;
31087;SDS011;17745;55.914;37.554;2023-06-22T15:51:20;10.75;;;4.30;;
31087;SDS011;17745;55.914;37.554;2023-06-22T15:54:52;22.23;;;5.07;;
31087;SDS011;17745;55.914;37.554;2023-06-22T16:23:13;12.88;;;4.57;;
31087;SDS011;17745;55.914;37.554;2023-06-22T16:26:20;12.45;;;4.15;;
31087;SDS011;17745;55.914;37.554;2023-06-22T16:29:29;16.05;;;4.20;;
31087;SDS011;17745;55.914;37.554;2023-06-22T16:32:59;11.93;;;4.78;;
31087;SDS011;17745;55.914;37.554;2023-06-22T16:36:04;13.55;;;4.18;;
31087;SDS011;17745;55.914;37.554;2023-06-22T16:46:12;11.75;;;4.47;;
31087;SDS011;17745;55.914;37.554;2023-06-22T16:49:01;14.98;;;4.25;;
31087;SDS011;17745;55.914;37.554;2023-06-22T16:52:20;11.12;;;3.67;;
31087;SDS011;17745;55.914;37.554;2023-06-22T16:55:29;11.57;;;4.70;;
31087;SDS011;17745;55.914;37.554;2023-06-22T16:58:20;12.07;;;3.75;;
31087;SDS011;17745;55.914;37.554;2023-06-22T17:01:09;10.63;;;3.90;;
31087;SDS011;17745;55.914;37.554;2023-06-22T17:11:49;7.75;;;3.95;;
31087;SDS011;17745;55.914;37.554;2023-06-22T17:14:55;15.95;;;4.30;;
31087;SDS011;17745;55.914;37.554;2023-06-22T17:28:53;9.73;;;4.05;;
31087;SDS011;17745;55.914;37.554;2023-06-22T17:31:35;8.27;;;3.97;;
31087;SDS011;17745;55.914;37.554;2023-06-22T17:34:34;12.85;;;4.20;;
31087;SDS011;17745;55.914;37.554;2023-06-22T17:37:54;9.70;;;4.10;;
31087;SDS011;17745;55.914;37.554;2023-06-22T17:41:04;7.72;;;4.35;;
31087;SDS011;17745;55.914;37.554;2023-06-22T17:54:50;13.95;;;4.05;;
31087;SDS011;17745;55.914;37.554;2023-06-22T17:57:55;6.97;;;3.87;;
31087;SDS011;17745;55.914;37.554;2023-06-22T18:00:58;11.93;;;4.78;;
31087;SDS011;17745;55.914;37.554;2023-06-22T18:04:29;16.35;;;4.43;;
31087;SDS011;17745;55.914;37.554;2023-06-22T18:19:04;11.52;;;4.37;;
31087;SDS011;17745;55.914;37.554;2023-06-22T18:22:33;9.65;;;3.83;;
31087;SDS011;17745;55.914;37.554;2023-06-22T18:26:44;13.48;;;4.53;;
31087;SDS011;17745;55.914;37.554;2023-06-22T18:46:35;7.32;;;4.05;;
31087;SDS011;17745;55.914;37.554;2023-06-22T18:50:46;7.40;;;4.32;;
31087;SDS011;17745;55.914;37.554;2023-06-22T18:54:34;10.02;;;4.62;;
31087;SDS011;17745;55.914;37.554;2023-06-22T19:05:19;15.65;;;5.37;;
31087;SDS011;17745;55.914;37.554;2023-06-22T19:08:19;8.30;;;4.15;;
31087;SDS011;17745;55.914;37.554;2023-06-22T19:10:53;14.18;;;4.57;;
31087;SDS011;17745;55.914;37.554;2023-06-22T19:14:06;8.38;;;4.60;;
31087;SDS011;17745;55.914;37.554;2023-06-22T19:16:57;9.52;;;4.60;;
31087;SDS011;17745;55.914;37.554;2023-06-22T19:32:02;7.10;;;3.90;;
31087;SDS011;17745;55.914;37.554;2023-06-22T19:35:38;14.02;;;4.37;;
31087;SDS011;17745;55.914;37.554;2023-06-22T19:39:13;22.42;;;5.03;;
31087;SDS011;17745;55.914;37.554;2023-06-22T19:42:07;6.82;;;3.95;;
31087;SDS011;17745;55.914;37.554;2023-06-22T19:44:44;9.73;;;4.53;;
31087;SDS011;17745;55.914;37.554;2023-06-22T19:57:54;16.67;;;4.73;;
31087;SDS011;17745;55.914;37.554;2023-06-22T20:00:58;15.30;;;4.50;;
31087;SDS011;17745;55.914;37.554;2023-06-22T20:03:47;17.37;;;4.60;;
31087;SDS011;17745;55.914;37.554;2023-06-22T20:06:39;8.05;;;4.15;;
31087;SDS011;17745;55.914;37.554;2023-06-22T20:09:27;7.47;;;4.15;;
31087;SDS011;17745;55.914;37.554;2023-06-22T20:15:14;8.75;;;3.58;;
31087;SDS011;17745;55.914;37.554;2023-06-22T20:18:03;7.28;;;3.80;;
31087;SDS011;17745;55.914;37.554;2023-06-22T20:21:15;8.60;;;4.60;;
31087;SDS011;17745;55.914;37.554;2023-06-22T20:24:46;14.45;;;4.07;;
31087;SDS011;17745;55.914;37.554;2023-06-22T20:27:28;7.93;;;3.85;;
31087;SDS011;17745;55.914;37.554;2023-06-22T20:30:19;10.07;;;3.78;;
31087;SDS011;17745;55.914;37.554;2023-06-22T20:33:27;11.68;;;4.07;;
31087;SDS011;17745;55.914;37.554;2023-06-22T20:36:48;11.05;;;4.07;;
31087;SDS011;17745;55.914;37.554;2023-06-22T20:40:07;15.52;;;4.00;;
31087;SDS011;17745;55.914;37.554;2023-06-22T20:43:17;11.20;;;4.20;;
31087;SDS011;17745;55.914;37.554;2023-06-22T20:50:03;8.63;;;4.03;;
31087;SDS011;17745;55.914;37.554;2023-06-22T20:53:11;10.32;;;4.30;;
31087;SDS011;17745;55.914;37.554;2023-06-22T21:00:13;8.82;;;4.03;;
31087;SDS011;17745;55.914;37.554;2023-06-22T21:03:22;7.97;;;3.97;;
31087;SDS011;17745;55.914;37.554;2023-06-22T21:06:53;9.75;;;4.70;;
31087;SDS011;17745;55.914;37.554;2023-06-22T21:09:46;6.18;;;3.80;;
31087;SDS011;17745;55.914;37.554;2023-06-22T21:12:40;9.90;;;4.28;;
31087;SDS011;17745;55.914;37.554;2023-06-22T21:15:28;9.80;;;4.47;;
31087;SDS011;17745;55.914;37.554;2023-06-22T21:18:37;10.30;;;3.90;;
31087;SDS011;17745;55.914;37.554;2023-06-22T21:33:57;8.45;;;4.68;;
31087;SDS011;17745;55.914;37.554;2023-06-22T21:43:42;10.10;;;5.00;;
31087;SDS011;17745;55.914;37.554;2023-06-22T21:47:10;10.52;;;4.93;;
31087;SDS011;17745;55.914;37.554;2023-06-22T21:57:28;14.02;;;5.22;;
31087;SDS011;17745;55.914;37.554;2023-06-22T22:00:08;8.68;;;4.90;;
31087;SDS011;17745;55.914;37.554;2023-06-22T22:03:10;11.52;;;5.07;;
31087;SDS011;17745;55.914;37.554;2023-06-22T22:05:49;9.50;;;5.12;;
31087;SDS011;17745;55.914;37.554;2023-06-22T22:08:57;12.60;;;5.15;;
31087;SDS011;17745;55.914;37.554;2023-06-22T22:27:06;10.05;;;6.35;;
31087;SDS011;17745;55.914;37.554;2023-06-22T22:48:28;10.25;;;5.82;;
31087;SDS011;17745;55.914;37.554;2023-06-22T22:51:46;16.45;;;6.30;;
31087;SDS011;17745;55.914;37.554;2023-06-22T22:55:00;12.40;;;5.80;;
31087;SDS011;17745;55.914;37.554;2023-06-22T22:58:16;13.00;;;6.93;;
31087;SDS011;17745;55.914;37.554;2023-06-22T23:01:27;9.32;;;6.10;;
31087;SDS011;17745;55.914;37.554;2023-06-22T23:18:49;18.10;;;6.15;;
31087;SDS011;17745;55.914;37.554;2023-06-22T23:21:55;12.13;;;5.35;;
31087;SDS011;17745;55.914;37.554;2023-06-22T23:24:54;16.70;;;5.87;;
31087;SDS011;17745;55.914;37.554;2023-06-22T23:28:09;14.85;;;5.70;;
31087;SDS011;17745;55.914;37.554;2023-06-22T23:31:05;16.27;;;6.05;;
31087;SDS011;17745;55.914;37.554;2023-06-22T23:37:20;12.55;;;5.10;;
31087;SDS011;17745;55.914;37.554;2023-06-22T23:40:05;16.55;;;5.05;;
31087;SDS011;17745;55.914;37.554;2023-06-22T23:42:58;15.52;;;5.45;;
31087;SDS011;17745;55.914;37.554;2023-06-22T23:47:37;14.82;;;5.45;;
31087;SDS011;17745;55.914;37.554;2023-06-22T23:49:49;10.70;;;5.20;;
31087;SDS011;17745;55.914;37.554;2023-06-22T23:52:48;14.82;;;4.57;;
31087;SDS011;17745;55.914;37.554;2023-06-22T23:55:46;11.82;;;5.70;;
31087;SDS011;17745;55.914;37.554;2023-06-22T23:58:55;14.90;;;4.72;;
